sensor_id;sensor_type;location;lat;lon;timestamp;temperature;humidity
18781;DHT22;9519;51.890;8.970;2022-08-04T00:02:11;22.60;83.90
18781;DHT22;9519;51.890;8.970;2022-08-04T00:07:24;22.50;83.40
18781;DHT22;9519;51.890;8.970;2022-08-04T00:12:33;22.50;83.70
18781;DHT22;9519;51.890;8.970;2022-08-04T00:17:42;22.50;84.50
18781;DHT22;9519;51.890;8.970;2022-08-04T00:22:47;22.40;85.10
18781;DHT22;9519;51.890;8.970;2022-08-04T00:27:53;22.30;85.50
18781;DHT22;9519;51.890;8.970;2022-08-04T00:32:59;22.30;86.00
18781;DHT22;9519;51.890;8.970;2022-08-04T00:38:02;22.20;86.60
18781;DHT22;9519;51.890;8.970;2022-08-04T00:43:11;22.10;86.80
18781;DHT22;9519;51.890;8.970;2022-08-04T00:48:35;22.10;87.40
18781;DHT22;9519;51.890;8.970;2022-08-04T00:53:54;22.00;87.80
18781;DHT22;9519;51.890;8.970;2022-08-04T00:59:13;21.90;88.50
18781;DHT22;9519;51.890;8.970;2022-08-04T01:04:44;21.90;89.70
18781;DHT22;9519;51.890;8.970;2022-08-04T01:09:56;21.80;89.30
18781;DHT22;9519;51.890;8.970;2022-08-04T01:15:05;21.70;89.90
18781;DHT22;9519;51.890;8.970;2022-08-04T01:20:13;21.70;90.00
18781;DHT22;9519;51.890;8.970;2022-08-04T01:26:01;21.60;90.30
18781;DHT22;9519;51.890;8.970;2022-08-04T01:31:54;21.50;90.50
18781;DHT22;9519;51.890;8.970;2022-08-04T01:37:10;21.50;90.70
18781;DHT22;9519;51.890;8.970;2022-08-04T01:42:20;21.50;90.80
18781;DHT22;9519;51.890;8.970;2022-08-04T01:47:29;21.40;90.90
18781;DHT22;9519;51.890;8.970;2022-08-04T01:52:34;21.40;91.10
18781;DHT22;9519;51.890;8.970;2022-08-04T01:57:41;21.30;91.50
18781;DHT22;9519;51.890;8.970;2022-08-04T02:02:46;21.30;91.40
18781;DHT22;9519;51.890;8.970;2022-08-04T02:08:01;21.30;91.40
18781;DHT22;9519;51.890;8.970;2022-08-04T02:13:18;21.30;91.60
18781;DHT22;9519;51.890;8.970;2022-08-04T02:18:30;21.20;91.60
18781;DHT22;9519;51.890;8.970;2022-08-04T02:23:36;21.20;92.10
18781;DHT22;9519;51.890;8.970;2022-08-04T02:28:46;21.10;91.90
18781;DHT22;9519;51.890;8.970;2022-08-04T02:34:00;21.10;92.10
18781;DHT22;9519;51.890;8.970;2022-08-04T02:39:08;21.10;92.30
18781;DHT22;9519;51.890;8.970;2022-08-04T02:44:12;21.00;92.30
18781;DHT22;9519;51.890;8.970;2022-08-04T02:49:22;20.90;92.50
18781;DHT22;9519;51.890;8.970;2022-08-04T02:54:29;20.80;92.80
18781;DHT22;9519;51.890;8.970;2022-08-04T02:59:47;20.80;93.00
18781;DHT22;9519;51.890;8.970;2022-08-04T03:05:11;20.70;93.30
18781;DHT22;9519;51.890;8.970;2022-08-04T03:10:29;20.60;93.60
18781;DHT22;9519;51.890;8.970;2022-08-04T03:16:02;20.60;93.90
18781;DHT22;9519;51.890;8.970;2022-08-04T03:21:38;20.50;94.00
18781;DHT22;9519;51.890;8.970;2022-08-04T03:27:10;20.50;94.30
18781;DHT22;9519;51.890;8.970;2022-08-04T03:32:48;20.40;94.50
18781;DHT22;9519;51.890;8.970;2022-08-04T03:38:39;20.30;94.80
18781;DHT22;9519;51.890;8.970;2022-08-04T03:44:30;20.30;95.10
18781;DHT22;9519;51.890;8.970;2022-08-04T03:50:21;20.30;95.30
18781;DHT22;9519;51.890;8.970;2022-08-04T04:01:45;20.30;95.80
18781;DHT22;9519;51.890;8.970;2022-08-04T04:13:26;20.20;96.20
18781;DHT22;9519;51.890;8.970;2022-08-04T04:18:54;20.20;96.50
18781;DHT22;9519;51.890;8.970;2022-08-04T04:24:39;20.20;96.70
18781;DHT22;9519;51.890;8.970;2022-08-04T04:30:18;20.20;97.10
18781;DHT22;9519;51.890;8.970;2022-08-04T04:35:34;20.20;97.20
18781;DHT22;9519;51.890;8.970;2022-08-04T04:40:55;20.20;97.60
18781;DHT22;9519;51.890;8.970;2022-08-04T04:46:12;20.30;97.80
18781;DHT22;9519;51.890;8.970;2022-08-04T04:51:27;20.30;98.00
18781;DHT22;9519;51.890;8.970;2022-08-04T04:56:44;20.30;98.10
18781;DHT22;9519;51.890;8.970;2022-08-04T05:13:51;20.50;98.70
18781;DHT22;9519;51.890;8.970;2022-08-04T05:19:19;20.60;98.80
18781;DHT22;9519;51.890;8.970;2022-08-04T05:24:28;20.70;99.10
18781;DHT22;9519;51.890;8.970;2022-08-04T05:29:36;20.90;99.20
18781;DHT22;9519;51.890;8.970;2022-08-04T05:34:46;21.00;99.40
18781;DHT22;9519;51.890;8.970;2022-08-04T05:39:57;21.20;99.50
18781;DHT22;9519;51.890;8.970;2022-08-04T05:45:03;21.30;99.50
18781;DHT22;9519;51.890;8.970;2022-08-04T05:50:10;21.50;99.50
18781;DHT22;9519;51.890;8.970;2022-08-04T05:55:15;21.60;99.50
18781;DHT22;9519;51.890;8.970;2022-08-04T06:00:18;21.80;99.30
18781;DHT22;9519;51.890;8.970;2022-08-04T06:05:23;21.90;99.20
18781;DHT22;9519;51.890;8.970;2022-08-04T06:10:26;22.10;99.20
18781;DHT22;9519;51.890;8.970;2022-08-04T06:15:34;22.20;99.10
18781;DHT22;9519;51.890;8.970;2022-08-04T06:20:42;22.40;99.20
18781;DHT22;9519;51.890;8.970;2022-08-04T06:25:49;22.50;99.00
18781;DHT22;9519;51.890;8.970;2022-08-04T06:30:57;22.60;98.90
18781;DHT22;9519;51.890;8.970;2022-08-04T06:36:08;22.80;98.90
18781;DHT22;9519;51.890;8.970;2022-08-04T06:41:11;23.00;98.70
18781;DHT22;9519;51.890;8.970;2022-08-04T06:46:14;23.20;98.50
18781;DHT22;9519;51.890;8.970;2022-08-04T06:51:19;23.40;98.40
18781;DHT22;9519;51.890;8.970;2022-08-04T06:56:24;23.60;98.10
18781;DHT22;9519;51.890;8.970;2022-08-04T07:01:29;23.80;97.80
18781;DHT22;9519;51.890;8.970;2022-08-04T07:06:35;24.00;97.40
18781;DHT22;9519;51.890;8.970;2022-08-04T07:11:37;24.20;97.00
18781;DHT22;9519;51.890;8.970;2022-08-04T07:16:40;24.40;96.60
18781;DHT22;9519;51.890;8.970;2022-08-04T07:21:44;24.60;96.20
18781;DHT22;9519;51.890;8.970;2022-08-04T07:26:49;24.80;95.90
18781;DHT22;9519;51.890;8.970;2022-08-04T07:31:54;24.90;95.60
18781;DHT22;9519;51.890;8.970;2022-08-04T07:36:59;25.10;95.50
18781;DHT22;9519;51.890;8.970;2022-08-04T07:42:03;25.30;95.10
18781;DHT22;9519;51.890;8.970;2022-08-04T07:47:06;25.40;94.70
18781;DHT22;9519;51.890;8.970;2022-08-04T07:52:10;25.60;94.00
18781;DHT22;9519;51.890;8.970;2022-08-04T07:57:15;25.80;92.50
18781;DHT22;9519;51.890;8.970;2022-08-04T08:02:20;25.90;91.80
18781;DHT22;9519;51.890;8.970;2022-08-04T08:07:24;26.10;91.00
18781;DHT22;9519;51.890;8.970;2022-08-04T08:12:27;26.30;90.80
18781;DHT22;9519;51.890;8.970;2022-08-04T08:17:30;26.50;90.20
18781;DHT22;9519;51.890;8.970;2022-08-04T08:22:35;26.60;90.20
18781;DHT22;9519;51.890;8.970;2022-08-04T08:27:37;26.80;90.10
18781;DHT22;9519;51.890;8.970;2022-08-04T08:32:40;27.00;89.70
18781;DHT22;9519;51.890;8.970;2022-08-04T08:37:46;27.20;88.70
18781;DHT22;9519;51.890;8.970;2022-08-04T08:43:08;27.40;87.20
18781;DHT22;9519;51.890;8.970;2022-08-04T08:48:46;27.60;86.10
18781;DHT22;9519;51.890;8.970;2022-08-04T08:54:17;27.90;86.00
18781;DHT22;9519;51.890;8.970;2022-08-04T08:59:43;28.10;85.10
18781;DHT22;9519;51.890;8.970;2022-08-04T09:05:05;28.30;84.10
18781;DHT22;9519;51.890;8.970;2022-08-04T09:10:21;28.60;83.30
18781;DHT22;9519;51.890;8.970;2022-08-04T09:15:33;28.80;83.70
18781;DHT22;9519;51.890;8.970;2022-08-04T09:20:44;29.00;82.50
18781;DHT22;9519;51.890;8.970;2022-08-04T09:25:57;29.20;81.80
18781;DHT22;9519;51.890;8.970;2022-08-04T09:31:08;29.30;80.70
18781;DHT22;9519;51.890;8.970;2022-08-04T09:36:25;29.50;80.10
18781;DHT22;9519;51.890;8.970;2022-08-04T09:41:37;29.70;78.60
18781;DHT22;9519;51.890;8.970;2022-08-04T09:47:01;29.90;78.20
18781;DHT22;9519;51.890;8.970;2022-08-04T09:52:24;30.10;78.30
18781;DHT22;9519;51.890;8.970;2022-08-04T09:57:49;30.30;77.10
18781;DHT22;9519;51.890;8.970;2022-08-04T10:02:59;30.50;76.50
18781;DHT22;9519;51.890;8.970;2022-08-04T10:08:16;30.70;75.30
18781;DHT22;9519;51.890;8.970;2022-08-04T10:13:41;30.90;73.30
18781;DHT22;9519;51.890;8.970;2022-08-04T10:19:01;31.20;73.90
18781;DHT22;9519;51.890;8.970;2022-08-04T10:24:18;31.40;70.60
18781;DHT22;9519;51.890;8.970;2022-08-04T10:29:37;31.70;69.20
18781;DHT22;9519;51.890;8.970;2022-08-04T10:34:53;31.90;64.80
18781;DHT22;9519;51.890;8.970;2022-08-04T10:40:05;32.10;59.50
18781;DHT22;9519;51.890;8.970;2022-08-04T10:45:33;32.40;57.10
18781;DHT22;9519;51.890;8.970;2022-08-04T10:50:49;32.60;56.50
18781;DHT22;9519;51.890;8.970;2022-08-04T10:56:12;32.80;54.50
18781;DHT22;9519;51.890;8.970;2022-08-04T11:01:23;32.90;51.40
18781;DHT22;9519;51.890;8.970;2022-08-04T11:06:31;33.00;51.30
18781;DHT22;9519;51.890;8.970;2022-08-04T11:11:38;33.20;51.00
18781;DHT22;9519;51.890;8.970;2022-08-04T11:16:49;33.30;51.30
18781;DHT22;9519;51.890;8.970;2022-08-04T11:21:58;33.50;51.40
18781;DHT22;9519;51.890;8.970;2022-08-04T11:27:13;33.60;50.50
18781;DHT22;9519;51.890;8.970;2022-08-04T11:32:30;33.70;48.30
18781;DHT22;9519;51.890;8.970;2022-08-04T11:37:44;33.70;47.30
18781;DHT22;9519;51.890;8.970;2022-08-04T11:42:53;33.80;48.10
18781;DHT22;9519;51.890;8.970;2022-08-04T11:48:06;33.90;48.30
18781;DHT22;9519;51.890;8.970;2022-08-04T11:53:14;33.90;47.00
18781;DHT22;9519;51.890;8.970;2022-08-04T11:58:19;34.00;47.40
18781;DHT22;9519;51.890;8.970;2022-08-04T12:03:31;34.10;47.00
18781;DHT22;9519;51.890;8.970;2022-08-04T12:08:52;34.10;45.60
18781;DHT22;9519;51.890;8.970;2022-08-04T12:14:12;34.10;46.60
18781;DHT22;9519;51.890;8.970;2022-08-04T12:19:29;34.30;47.10
18781;DHT22;9519;51.890;8.970;2022-08-04T12:24:40;34.40;46.10
18781;DHT22;9519;51.890;8.970;2022-08-04T12:29:45;34.50;46.40
18781;DHT22;9519;51.890;8.970;2022-08-04T12:34:57;34.60;45.90
18781;DHT22;9519;51.890;8.970;2022-08-04T12:40:15;34.70;44.30
18781;DHT22;9519;51.890;8.970;2022-08-04T12:45:21;34.70;44.10
18781;DHT22;9519;51.890;8.970;2022-08-04T12:50:26;34.60;45.10
18781;DHT22;9519;51.890;8.970;2022-08-04T12:55:31;34.60;44.70
18781;DHT22;9519;51.890;8.970;2022-08-04T13:00:36;34.50;44.10
18781;DHT22;9519;51.890;8.970;2022-08-04T13:05:42;34.40;44.90
18781;DHT22;9519;51.890;8.970;2022-08-04T13:10:48;34.40;44.30
18781;DHT22;9519;51.890;8.970;2022-08-04T13:15:55;34.40;43.40
18781;DHT22;9519;51.890;8.970;2022-08-04T13:21:12;34.50;43.30
18781;DHT22;9519;51.890;8.970;2022-08-04T13:26:16;34.60;42.10
18781;DHT22;9519;51.890;8.970;2022-08-04T13:31:21;34.70;43.40
18781;DHT22;9519;51.890;8.970;2022-08-04T13:36:25;34.90;43.10
18781;DHT22;9519;51.890;8.970;2022-08-04T13:41:30;34.80;42.30
18781;DHT22;9519;51.890;8.970;2022-08-04T13:46:40;34.70;42.30
18781;DHT22;9519;51.890;8.970;2022-08-04T13:51:52;34.70;42.80
18781;DHT22;9519;51.890;8.970;2022-08-04T13:56:59;34.70;42.30
18781;DHT22;9519;51.890;8.970;2022-08-04T14:02:15;34.80;41.60
18781;DHT22;9519;51.890;8.970;2022-08-04T14:07:40;34.60;40.20
18781;DHT22;9519;51.890;8.970;2022-08-04T14:12:48;34.50;40.30
18781;DHT22;9519;51.890;8.970;2022-08-04T14:17:51;34.40;40.30
18781;DHT22;9519;51.890;8.970;2022-08-04T14:23:00;34.30;40.60
18781;DHT22;9519;51.890;8.970;2022-08-04T14:28:02;34.20;40.00
18781;DHT22;9519;51.890;8.970;2022-08-04T14:33:06;34.10;40.50
18781;DHT22;9519;51.890;8.970;2022-08-04T14:38:14;34.10;40.80
18781;DHT22;9519;51.890;8.970;2022-08-04T14:43:17;34.00;40.50
18781;DHT22;9519;51.890;8.970;2022-08-04T14:48:19;34.10;41.60
18781;DHT22;9519;51.890;8.970;2022-08-04T14:53:24;34.30;40.90
18781;DHT22;9519;51.890;8.970;2022-08-04T14:58:30;34.30;41.50
18781;DHT22;9519;51.890;8.970;2022-08-04T15:03:38;34.10;42.00
18781;DHT22;9519;51.890;8.970;2022-08-04T15:08:43;33.90;43.60
18781;DHT22;9519;51.890;8.970;2022-08-04T15:13:46;33.70;45.40
18781;DHT22;9519;51.890;8.970;2022-08-04T15:18:49;33.60;46.10
18781;DHT22;9519;51.890;8.970;2022-08-04T15:23:54;33.40;46.70
18781;DHT22;9519;51.890;8.970;2022-08-04T15:29:00;33.30;47.20
18781;DHT22;9519;51.890;8.970;2022-08-04T15:34:10;33.20;47.80
18781;DHT22;9519;51.890;8.970;2022-08-04T15:39:24;33.00;48.10
18781;DHT22;9519;51.890;8.970;2022-08-04T15:50:17;32.60;48.20
18781;DHT22;9519;51.890;8.970;2022-08-04T15:55:36;32.30;51.30
18781;DHT22;9519;51.890;8.970;2022-08-04T16:01:14;31.80;53.50
18781;DHT22;9519;51.890;8.970;2022-08-04T16:11:48;30.90;56.70
18781;DHT22;9519;51.890;8.970;2022-08-04T16:16:50;30.60;58.10
18781;DHT22;9519;51.890;8.970;2022-08-04T16:21:54;30.30;59.20
18781;DHT22;9519;51.890;8.970;2022-08-04T16:27:00;30.00;59.20
18781;DHT22;9519;51.890;8.970;2022-08-04T16:37:30;30.10;60.50
18781;DHT22;9519;51.890;8.970;2022-08-04T16:42:35;30.30;59.70
18781;DHT22;9519;51.890;8.970;2022-08-04T16:48:00;30.30;59.60
18781;DHT22;9519;51.890;8.970;2022-08-04T16:53:10;30.20;59.50
18781;DHT22;9519;51.890;8.970;2022-08-04T16:58:14;30.00;59.70
18781;DHT22;9519;51.890;8.970;2022-08-04T17:03:18;29.90;59.80
18781;DHT22;9519;51.890;8.970;2022-08-04T17:08:27;29.70;59.90
18781;DHT22;9519;51.890;8.970;2022-08-04T17:13:35;29.60;60.30
18781;DHT22;9519;51.890;8.970;2022-08-04T17:18:41;29.50;60.50
18781;DHT22;9519;51.890;8.970;2022-08-04T17:23:47;29.40;60.70
18781;DHT22;9519;51.890;8.970;2022-08-04T17:28:53;29.40;60.90
18781;DHT22;9519;51.890;8.970;2022-08-04T17:33:58;29.30;61.20
18781;DHT22;9519;51.890;8.970;2022-08-04T17:39:10;29.10;61.80
18781;DHT22;9519;51.890;8.970;2022-08-04T17:44:15;29.00;62.40
18781;DHT22;9519;51.890;8.970;2022-08-04T17:49:21;28.90;62.50
18781;DHT22;9519;51.890;8.970;2022-08-04T17:54:29;28.90;62.90
18781;DHT22;9519;51.890;8.970;2022-08-04T17:59:42;28.90;63.10
18781;DHT22;9519;51.890;8.970;2022-08-04T18:04:49;28.90;63.20
18781;DHT22;9519;51.890;8.970;2022-08-04T18:09:55;28.90;63.30
18781;DHT22;9519;51.890;8.970;2022-08-04T18:15:01;28.80;63.50
18781;DHT22;9519;51.890;8.970;2022-08-04T18:20:07;28.70;63.80
18781;DHT22;9519;51.890;8.970;2022-08-04T18:25:11;28.60;64.50
18781;DHT22;9519;51.890;8.970;2022-08-04T18:30:16;28.40;65.10
18781;DHT22;9519;51.890;8.970;2022-08-04T18:35:19;28.30;65.70
18781;DHT22;9519;51.890;8.970;2022-08-04T18:40:21;28.20;66.80
18781;DHT22;9519;51.890;8.970;2022-08-04T18:45:25;28.00;67.50
18781;DHT22;9519;51.890;8.970;2022-08-04T18:50:27;27.80;67.80
18781;DHT22;9519;51.890;8.970;2022-08-04T18:55:30;27.70;67.70
18781;DHT22;9519;51.890;8.970;2022-08-04T19:00:33;27.60;67.10
18781;DHT22;9519;51.890;8.970;2022-08-04T19:05:36;27.50;67.00
18781;DHT22;9519;51.890;8.970;2022-08-04T19:10:38;27.40;66.50
18781;DHT22;9519;51.890;8.970;2022-08-04T19:15:42;27.30;66.80
18781;DHT22;9519;51.890;8.970;2022-08-04T19:20:44;27.30;66.80
18781;DHT22;9519;51.890;8.970;2022-08-04T19:25:47;27.20;66.80
18781;DHT22;9519;51.890;8.970;2022-08-04T19:30:51;27.10;67.40
18781;DHT22;9519;51.890;8.970;2022-08-04T19:35:54;27.00;68.00
18781;DHT22;9519;51.890;8.970;2022-08-04T19:40:56;26.80;68.10
18781;DHT22;9519;51.890;8.970;2022-08-04T19:46:00;26.70;68.10
18781;DHT22;9519;51.890;8.970;2022-08-04T19:51:03;26.70;68.50
18781;DHT22;9519;51.890;8.970;2022-08-04T19:56:05;26.60;68.80
18781;DHT22;9519;51.890;8.970;2022-08-04T20:01:09;26.40;70.40
18781;DHT22;9519;51.890;8.970;2022-08-04T20:06:13;26.20;70.20
18781;DHT22;9519;51.890;8.970;2022-08-04T20:11:16;26.20;71.00
18781;DHT22;9519;51.890;8.970;2022-08-04T20:16:22;26.00;71.90
18781;DHT22;9519;51.890;8.970;2022-08-04T20:21:24;26.00;73.00
18781;DHT22;9519;51.890;8.970;2022-08-04T20:26:26;25.90;72.70
18781;DHT22;9519;51.890;8.970;2022-08-04T20:31:30;25.80;73.20
18781;DHT22;9519;51.890;8.970;2022-08-04T20:36:32;25.70;73.60
18781;DHT22;9519;51.890;8.970;2022-08-04T20:41:34;25.60;74.00
18781;DHT22;9519;51.890;8.970;2022-08-04T20:46:38;25.60;74.40
18781;DHT22;9519;51.890;8.970;2022-08-04T20:51:40;25.50;74.70
18781;DHT22;9519;51.890;8.970;2022-08-04T20:56:43;25.50;75.20
18781;DHT22;9519;51.890;8.970;2022-08-04T21:01:47;25.50;75.80
18781;DHT22;9519;51.890;8.970;2022-08-04T21:06:49;25.50;76.10
18781;DHT22;9519;51.890;8.970;2022-08-04T21:11:51;25.40;76.20
18781;DHT22;9519;51.890;8.970;2022-08-04T21:16:54;25.30;76.80
18781;DHT22;9519;51.890;8.970;2022-08-04T21:21:57;25.20;77.20
18781;DHT22;9519;51.890;8.970;2022-08-04T21:27:00;25.10;77.50
18781;DHT22;9519;51.890;8.970;2022-08-04T21:32:07;25.10;78.00
18781;DHT22;9519;51.890;8.970;2022-08-04T21:37:09;25.00;78.40
18781;DHT22;9519;51.890;8.970;2022-08-04T21:42:12;24.80;79.90
18781;DHT22;9519;51.890;8.970;2022-08-04T21:47:15;24.60;81.70
18781;DHT22;9519;51.890;8.970;2022-08-04T21:52:17;24.50;82.50
18781;DHT22;9519;51.890;8.970;2022-08-04T21:57:20;24.40;83.90
18781;DHT22;9519;51.890;8.970;2022-08-04T22:02:23;24.40;84.10
18781;DHT22;9519;51.890;8.970;2022-08-04T22:07:25;24.30;85.00
18781;DHT22;9519;51.890;8.970;2022-08-04T22:12:27;24.20;86.20
18781;DHT22;9519;51.890;8.970;2022-08-04T22:17:31;24.10;87.30
18781;DHT22;9519;51.890;8.970;2022-08-04T22:22:33;24.10;88.70
18781;DHT22;9519;51.890;8.970;2022-08-04T22:27:36;23.90;90.00
18781;DHT22;9519;51.890;8.970;2022-08-04T22:32:57;23.80;90.40
18781;DHT22;9519;51.890;8.970;2022-08-04T22:37:59;23.70;91.10
18781;DHT22;9519;51.890;8.970;2022-08-04T22:43:01;23.50;91.60
18781;DHT22;9519;51.890;8.970;2022-08-04T22:48:05;23.40;92.30
18781;DHT22;9519;51.890;8.970;2022-08-04T22:53:07;23.30;92.70
18781;DHT22;9519;51.890;8.970;2022-08-04T22:58:11;23.20;93.30
18781;DHT22;9519;51.890;8.970;2022-08-04T23:03:14;23.10;94.00
18781;DHT22;9519;51.890;8.970;2022-08-04T23:08:16;23.00;95.00
18781;DHT22;9519;51.890;8.970;2022-08-04T23:13:19;22.80;95.60
18781;DHT22;9519;51.890;8.970;2022-08-04T23:18:22;22.70;96.50
18781;DHT22;9519;51.890;8.970;2022-08-04T23:23:24;22.60;96.70
18781;DHT22;9519;51.890;8.970;2022-08-04T23:28:26;22.50;97.20
18781;DHT22;9519;51.890;8.970;2022-08-04T23:33:30;22.50;97.50
18781;DHT22;9519;51.890;8.970;2022-08-04T23:38:33;22.40;97.90
18781;DHT22;9519;51.890;8.970;2022-08-04T23:43:35;22.40;98.10
18781;DHT22;9519;51.890;8.970;2022-08-04T23:48:39;22.40;98.50
18781;DHT22;9519;51.890;8.970;2022-08-04T23:53:42;22.30;98.50
18781;DHT22;9519;51.890;8.970;2022-08-04T23:58:44;22.30;98.60
